Time;durP1;ratioP1;P1;durP2;ratioP2;P2;SDS_P1;SDS_P2;PMS_P1;PMS_P2;Temp;Humidity;BMP_temperature;BMP_pressure;BME280_temperature;BME280_humidity;BME280_pressure;Samples;Min_cycle;Max_cycle;Signal;HPM_P1;HPM_P2
2024/01/29 00:01:48;;;;;;;7.95;3.50;;;4.80;99.90;;;;;;5072958;28;20052;-61
2024/01/29 00:04:14;;;;;;;7.80;4.18;;;4.80;99.90;;;;;;5073910;28;20496;-61
2024/01/29 00:06:39;;;;;;;8.35;3.55;;;4.70;99.90;;;;;;5073745;28;20048;-61
2024/01/29 00:09:05;;;;;;;7.88;3.42;;;4.70;99.90;;;;;;5073828;28;20045;-61
2024/01/29 00:11:33;;;;;;;6.90;3.42;;;4.70;99.90;;;;;;5073981;28;20537;-60
2024/01/29 00:13:59;;;;;;;8.93;4.40;;;4.70;99.90;;;;;;5072412;28;20124;-61
2024/01/29 00:16:25;;;;;;;9.15;3.50;;;4.60;99.90;;;;;;5073560;28;20421;-61
2024/01/29 00:18:50;;;;;;;8.13;3.58;;;4.60;99.90;;;;;;5073664;28;20089;-61
2024/01/29 00:21:16;;;;;;;8.70;4.22;;;4.60;99.90;;;;;;5073885;28;20177;-61
2024/01/29 00:23:42;;;;;;;8.57;3.58;;;4.60;99.90;;;;;;5073812;28;20036;-61
2024/01/29 00:26:07;;;;;;;10.30;3.72;;;4.60;99.90;;;;;;5073533;28;20040;-61
2024/01/29 00:28:33;;;;;;;7.75;3.55;;;4.60;99.90;;;;;;5072236;28;20410;-61
2024/01/29 00:30:59;;;;;;;9.13;3.65;;;4.50;99.90;;;;;;5073324;28;20059;-61
2024/01/29 00:33:25;;;;;;;9.80;3.92;;;4.60;99.90;;;;;;5073472;28;20044;-62
2024/01/29 00:35:50;;;;;;;8.43;4.05;;;4.50;99.90;;;;;;5073284;28;20037;-61
2024/01/29 00:38:16;;;;;;;6.00;3.50;;;4.50;99.90;;;;;;5073135;28;20406;-61
2024/01/29 00:40:42;;;;;;;8.23;3.53;;;4.50;99.90;;;;;;5073168;28;20072;-61
2024/01/29 00:43:07;;;;;;;9.63;3.67;;;4.50;99.90;;;;;;5071900;28;20062;-60
2024/01/29 00:45:33;;;;;;;9.98;3.70;;;4.40;99.90;;;;;;5072977;28;20037;-61
2024/01/29 00:47:59;;;;;;;8.20;3.53;;;4.40;99.90;;;;;;5072927;28;20036;-61
2024/01/29 00:50:24;;;;;;;8.85;4.10;;;4.40;99.90;;;;;;5073020;28;20495;-61
2024/01/29 00:52:50;;;;;;;9.60;3.72;;;4.40;99.90;;;;;;5073207;28;20134;-61
2024/01/29 00:55:16;;;;;;;7.30;3.90;;;4.30;99.90;;;;;;5072432;28;20094;-61
2024/01/29 00:57:41;;;;;;;7.97;4.00;;;4.30;99.90;;;;;;5072704;28;20033;-61
2024/01/29 01:00:08;;;;;;;9.23;3.95;;;4.30;99.90;;;;;;5073076;28;20097;-61
2024/01/29 01:02:34;;;;;;;7.22;4.03;;;4.30;99.90;;;;;;5072903;28;20082;-60
2024/01/29 01:05:00;;;;;;;8.45;4.07;;;4.30;99.90;;;;;;5072879;28;20431;-61
2024/01/29 01:07:25;;;;;;;9.10;4.32;;;4.30;99.90;;;;;;5072676;28;20123;-61
2024/01/29 01:09:51;;;;;;;8.32;3.90;;;4.20;99.90;;;;;;5072656;28;20512;-61
2024/01/29 01:12:17;;;;;;;7.65;3.90;;;4.20;99.90;;;;;;5072450;28;20405;-61
2024/01/29 01:14:42;;;;;;;9.05;4.43;;;4.20;99.90;;;;;;5072504;28;20440;-61
2024/01/29 01:17:08;;;;;;;8.20;3.80;;;4.20;99.90;;;;;;5072815;28;20044;-61
2024/01/29 01:19:34;;;;;;;8.93;4.10;;;4.20;99.90;;;;;;5072409;28;20036;-60
2024/01/29 01:22:00;;;;;;;9.32;4.45;;;4.10;99.90;;;;;;5072800;28;20121;-61
2024/01/29 01:24:25;;;;;;;10.38;4.43;;;4.10;99.90;;;;;;5072669;28;20484;-61
2024/01/29 01:26:51;;;;;;;8.55;3.88;;;4.00;99.90;;;;;;5072381;28;20391;-61
2024/01/29 01:29:18;;;;;;;8.23;4.13;;;4.00;99.90;;;;;;5072344;28;20040;-61
2024/01/29 01:31:43;;;;;;;8.45;3.92;;;4.00;99.90;;;;;;5072289;28;20106;-61
2024/01/29 01:34:09;;;;;;;8.48;4.07;;;4.00;99.90;;;;;;5072159;28;20045;-61
2024/01/29 01:36:35;;;;;;;8.48;3.95;;;4.00;99.90;;;;;;5072539;28;20036;-61
2024/01/29 01:39:00;;;;;;;11.07;4.35;;;3.90;99.90;;;;;;5072495;28;20071;-61
2024/01/29 01:41:26;;;;;;;8.80;4.07;;;3.90;99.90;;;;;;5072157;28;20109;-61
2024/01/29 01:43:52;;;;;;;9.93;5.47;;;3.90;99.90;;;;;;5071984;28;20056;-61
2024/01/29 01:46:23;;;;;;;8.57;4.10;;;3.90;99.90;;;;;;5071489;28;20105;-60
2024/01/29 01:48:55;;;;;;;9.05;4.00;;;4.00;99.90;;;;;;5072091;28;20097;-61
2024/01/29 01:51:22;;;;;;;8.43;4.22;;;3.90;99.90;;;;;;5071028;28;20052;-61
2024/01/29 01:53:54;;;;;;;8.90;4.03;;;3.90;99.90;;;;;;5070620;28;20056;-61
2024/01/29 01:56:21;;;;;;;9.82;4.40;;;3.90;99.90;;;;;;5072442;28;20048;-61
2024/01/29 01:58:47;;;;;;;8.10;3.70;;;3.90;99.90;;;;;;5070973;28;20040;-61
2024/01/29 02:01:14;;;;;;;7.95;3.78;;;3.90;99.90;;;;;;5072040;28;20041;-61
2024/01/29 02:03:40;;;;;;;9.10;4.32;;;3.80;99.90;;;;;;5070649;28;20124;-60
2024/01/29 02:06:06;;;;;;;10.15;4.43;;;3.80;99.90;;;;;;5071788;28;20052;-61
2024/01/29 02:08:32;;;;;;;8.23;4.15;;;3.80;99.90;;;;;;5071970;28;20432;-61
2024/01/29 02:11:01;;;;;;;10.70;4.10;;;3.80;99.90;;;;;;5071872;28;20048;-61
2024/01/29 02:13:27;;;;;;;7.43;4.03;;;3.80;99.90;;;;;;5072014;28;20040;-62
2024/01/29 02:15:53;;;;;;;12.02;6.38;;;3.90;99.90;;;;;;5072189;28;20044;-61
2024/01/29 02:18:19;;;;;;;8.07;4.22;;;3.80;99.90;;;;;;5070474;28;20052;-61
2024/01/29 02:20:44;;;;;;;11.40;4.60;;;3.70;99.90;;;;;;5071831;28;20036;-61
2024/01/29 02:23:10;;;;;;;8.73;4.03;;;3.70;99.90;;;;;;5070542;28;20472;-61
2024/01/29 02:25:36;;;;;;;10.05;4.30;;;3.70;99.90;;;;;;5071639;28;20043;-61
2024/01/29 02:28:01;;;;;;;8.38;4.00;;;3.70;99.90;;;;;;5071994;28;20044;-61
2024/01/29 02:30:27;;;;;;;9.63;4.18;;;3.70;99.90;;;;;;5071472;28;20041;-60
2024/01/29 02:32:53;;;;;;;8.90;4.00;;;3.70;99.90;;;;;;5071879;28;20070;-61
2024/01/29 02:35:19;;;;;;;9.07;4.43;;;3.70;99.90;;;;;;5071866;28;20048;-61
2024/01/29 02:37:44;;;;;;;7.75;4.38;;;3.70;99.90;;;;;;5071659;28;20051;-61
2024/01/29 02:40:11;;;;;;;10.10;4.90;;;3.60;99.90;;;;;;5071874;28;20484;-61
2024/01/29 02:42:37;;;;;;;8.88;4.88;;;3.60;99.90;;;;;;5071827;28;20041;-61
2024/01/29 02:45:04;;;;;;;8.55;4.47;;;3.70;99.90;;;;;;5071521;28;20040;-61
2024/01/29 02:47:29;;;;;;;7.57;3.85;;;3.70;99.90;;;;;;5071455;28;20373;-61
2024/01/29 02:49:55;;;;;;;9.07;4.20;;;3.60;99.90;;;;;;5071732;28;20048;-60
2024/01/29 02:52:21;;;;;;;10.60;4.50;;;3.60;99.90;;;;;;5071502;28;20044;-61
2024/01/29 02:54:47;;;;;;;8.98;4.30;;;3.60;99.90;;;;;;5071285;28;20059;-61
2024/01/29 02:57:13;;;;;;;12.05;4.55;;;3.60;99.90;;;;;;5071495;28;20040;-61
2024/01/29 02:59:38;;;;;;;8.88;4.38;;;3.60;99.90;;;;;;5073486;28;20044;-61
2024/01/29 03:02:06;;;;;;;9.00;3.90;;;3.60;99.90;;;;;;5075125;28;20040;-61
2024/01/29 03:04:32;;;;;;;8.25;3.95;;;3.50;99.90;;;;;;5075053;28;20044;-61
2024/01/29 03:06:58;;;;;;;10.30;4.82;;;3.60;99.90;;;;;;5074894;28;20094;-60
2024/01/29 03:09:23;;;;;;;10.02;4.65;;;3.50;99.90;;;;;;5075240;28;20442;-61
2024/01/29 03:11:49;;;;;;;9.02;4.53;;;3.50;99.90;;;;;;5075302;28;20123;-61
2024/01/29 03:14:15;;;;;;;9.25;4.70;;;3.50;99.90;;;;;;5075047;28;20080;-61
2024/01/29 03:16:40;;;;;;;8.90;5.00;;;3.60;99.90;;;;;;5074713;28;20052;-60
2024/01/29 03:19:07;;;;;;;8.65;4.68;;;3.60;99.90;;;;;;5074695;28;20527;-61
2024/01/29 03:21:33;;;;;;;9.98;4.50;;;3.60;99.90;;;;;;5074809;28;20123;-60
2024/01/29 03:23:59;;;;;;;8.80;5.13;;;3.60;99.90;;;;;;5074867;28;20484;-60
2024/01/29 03:26:25;;;;;;;8.88;4.72;;;3.60;99.90;;;;;;5074994;28;20134;-61
2024/01/29 03:28:50;;;;;;;8.00;4.55;;;3.50;99.90;;;;;;5074687;28;20037;-61
2024/01/29 03:31:16;;;;;;;8.32;4.32;;;3.50;99.90;;;;;;5074618;28;20040;-60
2024/01/29 03:33:42;;;;;;;10.32;4.78;;;3.50;99.90;;;;;;5074397;28;20044;-60
2024/01/29 03:36:08;;;;;;;11.05;4.97;;;3.60;99.90;;;;;;5074713;28;20095;-61
2024/01/29 03:38:33;;;;;;;9.73;4.93;;;3.50;99.90;;;;;;5074457;28;20412;-61
2024/01/29 03:41:00;;;;;;;10.00;4.97;;;3.50;99.90;;;;;;5074618;28;20115;-60
2024/01/29 03:43:26;;;;;;;10.02;4.68;;;3.40;99.90;;;;;;5074394;28;20036;-61
2024/01/29 03:45:54;;;;;;;8.55;4.50;;;3.40;99.90;;;;;;5074553;28;20116;-60
2024/01/29 03:48:20;;;;;;;8.93;4.85;;;3.40;99.90;;;;;;5074161;28;20099;-61
2024/01/29 03:50:46;;;;;;;10.25;5.38;;;3.40;99.90;;;;;;5074118;28;20079;-61
2024/01/29 03:53:12;;;;;;;8.88;4.85;;;3.40;99.90;;;;;;5074133;28;20091;-61
2024/01/29 03:55:37;;;;;;;11.38;4.72;;;3.40;99.90;;;;;;5074001;28;20054;-61
2024/01/29 03:58:03;;;;;;;10.32;5.15;;;3.30;99.90;;;;;;5074201;28;20078;-61
2024/01/29 04:00:32;;;;;;;10.48;4.95;;;3.30;99.90;;;;;;5074211;28;20396;-60
2024/01/29 04:02:58;;;;;;;10.88;4.78;;;3.30;99.90;;;;;;5074195;28;20040;-61
2024/01/29 04:05:24;;;;;;;10.15;5.10;;;3.30;99.90;;;;;;5073709;28;20476;-60
2024/01/29 04:07:49;;;;;;;10.90;5.32;;;3.30;99.90;;;;;;5074025;28;20048;-61
2024/01/29 04:10:17;;;;;;;10.38;4.88;;;3.30;99.90;;;;;;5073683;28;20036;-61
2024/01/29 04:12:42;;;;;;;9.32;5.00;;;3.30;99.90;;;;;;5073792;28;20072;-61
2024/01/29 04:15:08;;;;;;;11.85;5.32;;;3.30;99.90;;;;;;5073498;28;20125;-60
2024/01/29 04:17:34;;;;;;;9.23;4.65;;;3.30;99.90;;;;;;5073930;28;20040;-61
2024/01/29 04:20:00;;;;;;;11.18;4.78;;;3.30;99.90;;;;;;5073498;28;20040;-61
2024/01/29 04:22:26;;;;;;;9.20;4.50;;;3.30;99.90;;;;;;5073701;28;20040;-61
2024/01/29 04:24:52;;;;;;;10.75;5.35;;;3.20;99.90;;;;;;5073323;28;20063;-61
2024/01/29 04:27:18;;;;;;;8.95;4.72;;;3.20;99.90;;;;;;5073314;28;20040;-61
2024/01/29 04:29:44;;;;;;;10.70;5.72;;;3.20;99.90;;;;;;5073314;28;20040;-61
2024/01/29 04:32:10;;;;;;;9.05;5.10;;;3.20;99.90;;;;;;5073251;28;20040;-60
2024/01/29 04:34:35;;;;;;;8.68;4.97;;;3.10;99.90;;;;;;5073127;28;20408;-60
2024/01/29 04:37:01;;;;;;;8.40;5.03;;;3.10;99.90;;;;;;5073438;28;20040;-59
2024/01/29 04:39:27;;;;;;;9.55;5.10;;;3.10;99.90;;;;;;5073473;28;20044;-61
2024/01/29 04:41:53;;;;;;;10.88;5.35;;;3.00;99.90;;;;;;5073416;28;20455;-61
2024/01/29 04:44:19;;;;;;;12.88;5.18;;;3.10;99.90;;;;;;5073429;28;20033;-61
2024/01/29 04:46:44;;;;;;;9.40;5.28;;;3.00;99.90;;;;;;5073036;28;20041;-62
2024/01/29 04:49:10;;;;;;;9.52;5.03;;;3.10;99.90;;;;;;5073193;28;20491;-61
2024/01/29 04:51:37;;;;;;;10.93;4.97;;;3.10;99.90;;;;;;5073119;28;20492;-61
2024/01/29 04:54:03;;;;;;;9.18;5.88;;;3.10;99.90;;;;;;5072679;28;20056;-61
2024/01/29 04:56:28;;;;;;;11.40;5.40;;;3.20;99.90;;;;;;5072937;28;20097;-61
2024/01/29 04:58:54;;;;;;;11.13;5.32;;;3.10;99.90;;;;;;5072739;28;20040;-60
2024/01/29 05:01:19;;;;;;;11.07;5.55;;;3.20;99.90;;;;;;5072732;28;20744;-61
2024/01/29 05:03:46;;;;;;;10.35;5.20;;;3.30;99.90;;;;;;5072636;28;20052;-61
2024/01/29 05:06:12;;;;;;;10.48;5.30;;;3.20;99.90;;;;;;5071354;28;20048;-61
2024/01/29 05:08:38;;;;;;;11.35;5.30;;;3.30;99.90;;;;;;5072828;28;20059;-61
2024/01/29 05:11:04;;;;;;;12.50;5.68;;;3.30;99.90;;;;;;5072796;28;20471;-61
2024/01/29 05:13:30;;;;;;;10.13;5.30;;;3.30;99.90;;;;;;5072559;28;20079;-61
2024/01/29 05:15:55;;;;;;;11.65;6.45;;;3.30;99.90;;;;;;5072586;28;20078;-61
2024/01/29 05:18:21;;;;;;;10.52;6.28;;;3.30;99.90;;;;;;5072399;28;20064;-61
2024/01/29 05:20:47;;;;;;;10.90;5.30;;;3.30;99.90;;;;;;5072167;28;20090;-61
2024/01/29 05:23:12;;;;;;;9.73;5.57;;;3.30;99.90;;;;;;5072091;28;20036;-61
2024/01/29 05:25:38;;;;;;;10.35;5.70;;;3.40;99.90;;;;;;5072337;28;20040;-61
2024/01/29 05:28:04;;;;;;;11.30;6.28;;;3.40;99.90;;;;;;5072261;28;20040;-61
2024/01/29 05:30:30;;;;;;;10.98;6.00;;;3.40;99.90;;;;;;5072102;28;20036;-61
2024/01/29 05:32:56;;;;;;;10.15;5.63;;;3.30;99.90;;;;;;5072165;28;20032;-61
2024/01/29 05:35:21;;;;;;;11.43;5.60;;;3.30;99.90;;;;;;5072195;28;20044;-61
2024/01/29 05:37:47;;;;;;;11.05;5.90;;;3.40;99.90;;;;;;5072373;28;20400;-59
2024/01/29 05:40:13;;;;;;;11.15;5.57;;;3.30;99.90;;;;;;5072526;28;20044;-60
2024/01/29 05:42:38;;;;;;;9.60;6.20;;;3.30;99.90;;;;;;5072449;28;20033;-59
2024/01/29 05:45:05;;;;;;;10.32;5.60;;;3.20;99.90;;;;;;5072100;28;20075;-60
2024/01/29 05:47:30;;;;;;;9.48;5.60;;;3.20;99.90;;;;;;5072171;28;20074;-59
2024/01/29 05:49:56;;;;;;;10.98;5.97;;;3.30;99.90;;;;;;5072380;28;20094;-59
2024/01/29 05:52:22;;;;;;;14.15;6.75;;;3.40;99.90;;;;;;5072038;28;20098;-59
2024/01/29 05:54:47;;;;;;;8.90;5.50;;;3.30;99.90;;;;;;5071689;28;20048;-59
2024/01/29 05:57:14;;;;;;;11.82;6.13;;;3.30;99.90;;;;;;5072048;28;20080;-59
2024/01/29 05:59:40;;;;;;;11.30;5.90;;;3.20;99.90;;;;;;5072285;28;20040;-59
2024/01/29 06:02:06;;;;;;;11.32;6.85;;;3.20;99.90;;;;;;5071989;28;20028;-59
2024/01/29 06:04:32;;;;;;;11.68;5.78;;;3.30;99.90;;;;;;5072188;28;20499;-59
2024/01/29 06:06:58;;;;;;;11.25;6.28;;;3.30;99.90;;;;;;5071966;28;20378;-60
2024/01/29 06:09:23;;;;;;;10.93;5.78;;;3.40;99.90;;;;;;5071882;28;20044;-60
2024/01/29 06:11:53;;;;;;;9.80;5.85;;;3.30;99.90;;;;;;5072061;28;20040;-60
2024/01/29 06:14:19;;;;;;;12.43;6.25;;;3.30;99.90;;;;;;5070435;28;20048;-60
2024/01/29 06:16:45;;;;;;;12.38;6.97;;;3.30;99.90;;;;;;5071866;28;20043;-60
2024/01/29 06:19:15;;;;;;;11.25;6.13;;;3.30;99.90;;;;;;5071843;28;20112;-60
2024/01/29 06:21:44;;;;;;;12.07;6.40;;;3.50;99.90;;;;;;5072049;28;20447;-60
2024/01/29 06:24:10;;;;;;;10.05;5.78;;;3.40;99.90;;;;;;5070961;28;20044;-61
2024/01/29 06:26:35;;;;;;;11.00;5.93;;;3.50;99.90;;;;;;5071166;28;20040;-60
2024/01/29 06:29:02;;;;;;;12.48;6.47;;;3.50;99.90;;;;;;5070742;28;20047;-60
2024/01/29 06:31:27;;;;;;;12.65;6.32;;;3.40;99.90;;;;;;5071133;28;20127;-60
2024/01/29 06:33:54;;;;;;;11.00;5.95;;;3.50;99.90;;;;;;5072250;28;20564;-60
2024/01/29 06:36:20;;;;;;;11.38;6.10;;;3.40;99.90;;;;;;5074969;28;20043;-60
2024/01/29 06:38:46;;;;;;;11.80;6.60;;;3.50;99.90;;;;;;5074502;28;20041;-60
2024/01/29 06:41:22;;;;;;;11.93;6.47;;;3.50;99.90;;;;;;5074601;28;20040;-60
2024/01/29 06:43:49;;;;;;;12.85;7.45;;;3.30;99.90;;;;;;5073052;28;20416;-59
2024/01/29 06:46:15;;;;;;;10.40;6.18;;;3.40;99.90;;;;;;5074348;28;20048;-59
2024/01/29 06:48:41;;;;;;;10.15;5.65;;;3.30;99.90;;;;;;5074754;28;20033;-60
2024/01/29 06:51:07;;;;;;;9.48;5.45;;;3.20;99.90;;;;;;5074463;28;20032;-60
2024/01/29 06:53:34;;;;;;;11.82;5.68;;;3.20;99.90;;;;;;5074390;28;20052;-60
2024/01/29 06:56:02;;;;;;;10.48;6.22;;;3.30;99.90;;;;;;5074201;28;20051;-61
2024/01/29 06:58:32;;;;;;;10.80;5.82;;;3.20;99.90;;;;;;5074206;28;20076;-60
2024/01/29 07:01:00;;;;;;;9.85;5.50;;;3.40;99.90;;;;;;5074159;28;20481;-60
2024/01/29 07:03:26;;;;;;;14.13;6.50;;;3.30;99.90;;;;;;5074108;28;20602;-60
2024/01/29 07:05:52;;;;;;;12.57;6.55;;;3.30;99.90;;;;;;5074042;28;20032;-59
2024/01/29 07:08:18;;;;;;;13.10;6.93;;;3.30;99.90;;;;;;5074123;28;20508;-60
2024/01/29 07:10:44;;;;;;;12.05;6.88;;;3.30;99.90;;;;;;5074110;28;20036;-60
2024/01/29 07:13:10;;;;;;;10.75;6.45;;;3.40;99.90;;;;;;5074047;28;20059;-59
2024/01/29 07:15:36;;;;;;;11.85;6.25;;;3.30;99.90;;;;;;5074033;28;20492;-60
2024/01/29 07:18:02;;;;;;;10.20;5.60;;;3.30;99.90;;;;;;5073874;28;20041;-60
2024/01/29 07:20:29;;;;;;;10.57;5.88;;;3.40;99.90;;;;;;5073792;28;20477;-60
2024/01/29 07:22:56;;;;;;;10.18;5.82;;;3.40;99.90;;;;;;5073737;28;20044;-59
2024/01/29 07:25:22;;;;;;;10.88;6.13;;;3.40;99.90;;;;;;5073584;28;20170;-60
2024/01/29 07:27:48;;;;;;;11.50;6.20;;;3.20;99.90;;;;;;5073990;28;20044;-60
2024/01/29 07:30:14;;;;;;;12.13;6.85;;;3.30;99.90;;;;;;5072566;28;20067;-60
2024/01/29 07:32:40;;;;;;;11.75;6.20;;;3.40;99.90;;;;;;5073854;28;20707;-60
2024/01/29 07:35:07;;;;;;;12.02;6.00;;;3.20;99.90;;;;;;5073486;28;20072;-60
2024/01/29 07:37:32;;;;;;;12.50;6.28;;;3.20;99.90;;;;;;5073514;28;20048;-62
2024/01/29 07:39:58;;;;;;;11.90;7.03;;;3.30;99.90;;;;;;5073525;28;20044;-57
2024/01/29 07:42:24;;;;;;;12.00;6.13;;;3.40;99.90;;;;;;5073761;28;20044;-57
2024/01/29 07:44:51;;;;;;;12.35;6.68;;;3.40;99.90;;;;;;5072690;28;20055;-57
2024/01/29 07:47:17;;;;;;;12.27;6.75;;;3.20;99.90;;;;;;5073665;28;20048;-57
2024/01/29 07:49:43;;;;;;;12.45;6.55;;;3.40;99.90;;;;;;5073452;28;20043;-57
2024/01/29 07:52:09;;;;;;;12.23;6.22;;;3.20;99.90;;;;;;5073531;28;20041;-58
2024/01/29 07:54:35;;;;;;;13.00;7.15;;;3.40;99.90;;;;;;5071755;28;20056;-57
2024/01/29 07:57:03;;;;;;;11.65;6.80;;;3.30;99.90;;;;;;5073386;28;20381;-57
2024/01/29 07:59:29;;;;;;;11.52;6.72;;;3.30;99.90;;;;;;5073131;28;20051;-57
2024/01/29 08:01:55;;;;;;;12.45;7.38;;;3.30;99.90;;;;;;5073219;28;20531;-57
2024/01/29 08:04:21;;;;;;;13.55;6.55;;;3.40;99.90;;;;;;5073548;28;20068;-57
2024/01/29 08:06:46;;;;;;;13.32;6.38;;;3.30;99.90;;;;;;5073221;28;20041;-57
2024/01/29 08:09:12;;;;;;;12.40;6.38;;;3.30;99.90;;;;;;5072998;28;20127;-57
2024/01/29 08:11:38;;;;;;;10.88;6.22;;;3.60;99.90;;;;;;5073163;28;20040;-57
2024/01/29 08:14:03;;;;;;;12.18;6.38;;;3.50;99.90;;;;;;5072850;28;20048;-57
2024/01/29 08:16:29;;;;;;;12.40;5.97;;;3.40;99.90;;;;;;5071630;28;20029;-57
2024/01/29 08:18:56;;;;;;;11.98;5.90;;;3.50;99.90;;;;;;5072918;28;20148;-58
2024/01/29 08:21:22;;;;;;;13.93;6.50;;;3.70;99.90;;;;;;5073026;28;20044;-58
2024/01/29 08:23:48;;;;;;;11.45;6.65;;;3.60;99.90;;;;;;5072916;28;20515;-58
2024/01/29 08:26:13;;;;;;;11.48;5.80;;;3.60;99.90;;;;;;5073042;28;20052;-57
2024/01/29 08:28:39;;;;;;;10.43;5.80;;;3.70;99.90;;;;;;5072831;28;20036;-58
2024/01/29 08:31:06;;;;;;;13.25;6.05;;;3.70;99.90;;;;;;5072271;28;20075;-58
2024/01/29 08:33:32;;;;;;;13.07;6.40;;;3.70;99.90;;;;;;5071997;28;20058;-57
2024/01/29 08:35:58;;;;;;;12.52;6.32;;;4.00;99.90;;;;;;5071936;28;20032;-57
2024/01/29 08:38:24;;;;;;;11.70;6.05;;;4.00;99.90;;;;;;5072562;28;20473;-57
2024/01/29 08:40:50;;;;;;;15.13;6.03;;;3.90;99.90;;;;;;5072609;28;20044;-57
2024/01/29 08:43:16;;;;;;;12.60;6.20;;;3.90;99.90;;;;;;5072226;28;20436;-57
2024/01/29 08:45:42;;;;;;;11.20;5.95;;;4.10;99.90;;;;;;5072170;28;20044;-57
2024/01/29 08:48:07;;;;;;;13.20;6.32;;;4.10;99.90;;;;;;5072293;28;20377;-57
2024/01/29 08:50:36;;;;;;;11.73;6.18;;;4.00;99.90;;;;;;5072534;28;20059;-57
2024/01/29 08:53:03;;;;;;;13.07;6.07;;;3.90;99.90;;;;;;5072268;28;20040;-57
2024/01/29 08:55:31;;;;;;;15.98;6.55;;;4.20;99.90;;;;;;5071908;28;20048;-57
2024/01/29 08:57:57;;;;;;;12.55;6.03;;;4.20;99.90;;;;;;5071988;28;20472;-57
2024/01/29 09:00:23;;;;;;;13.10;7.03;;;4.20;99.90;;;;;;5070620;28;20052;-57
2024/01/29 09:02:49;;;;;;;12.15;6.10;;;4.20;99.90;;;;;;5066449;28;20040;-58
2024/01/29 09:05:16;;;;;;;10.35;5.90;;;4.10;99.90;;;;;;5066553;28;20036;-57
2024/01/29 09:07:41;;;;;;;12.65;6.35;;;4.10;99.90;;;;;;5072151;28;20044;-57
2024/01/29 09:10:08;;;;;;;10.38;5.78;;;4.20;99.90;;;;;;5071513;28;20446;-58
2024/01/29 09:12:34;;;;;;;11.90;6.32;;;4.10;99.90;;;;;;5071915;28;20144;-58
2024/01/29 09:15:02;;;;;;;15.23;6.47;;;4.10;99.90;;;;;;5071872;28;20540;-57
2024/01/29 09:17:27;;;;;;;10.38;6.13;;;4.50;99.90;;;;;;5070292;28;20032;-57
2024/01/29 09:19:53;;;;;;;11.80;6.60;;;4.50;99.90;;;;;;5070754;28;20551;-58
2024/01/29 09:22:19;;;;;;;13.18;7.18;;;4.20;99.90;;;;;;5072179;28;20124;-58
2024/01/29 09:24:44;;;;;;;13.02;6.57;;;4.30;99.90;;;;;;5072560;28;20040;-58
2024/01/29 09:27:10;;;;;;;11.45;6.72;;;4.30;99.90;;;;;;5072512;28;20080;-57
2024/01/29 09:29:36;;;;;;;13.90;6.90;;;4.30;99.90;;;;;;5072358;28;20090;-58
2024/01/29 09:32:01;;;;;;;14.45;7.00;;;4.30;99.90;;;;;;5071034;28;20055;-58
2024/01/29 09:34:27;;;;;;;13.15;6.85;;;4.70;99.90;;;;;;5072072;28;20041;-57
2024/01/29 09:36:54;;;;;;;12.77;7.00;;;4.70;99.90;;;;;;5072179;28;20087;-58
2024/01/29 09:39:22;;;;;;;13.77;7.07;;;4.80;99.90;;;;;;5072405;28;20060;-58
2024/01/29 09:41:50;;;;;;;16.90;6.93;;;4.50;99.90;;;;;;5071257;28;20032;-58
2024/01/29 09:44:15;;;;;;;12.77;6.50;;;4.60;99.90;;;;;;5072264;28;20055;-57
2024/01/29 09:46:41;;;;;;;14.15;7.90;;;4.60;99.90;;;;;;5072165;28;20345;-58
2024/01/29 09:49:08;;;;;;;13.48;7.00;;;4.70;99.90;;;;;;5072382;28;20048;-58
2024/01/29 09:51:34;;;;;;;12.30;7.50;;;5.00;99.90;;;;;;5072214;28;20455;-56
2024/01/29 09:54:01;;;;;;;14.23;7.75;;;5.00;99.90;;;;;;5072053;28;20130;-56
2024/01/29 09:56:28;;;;;;;13.35;7.68;;;5.00;99.90;;;;;;5072156;28;20060;-58
2024/01/29 09:58:54;;;;;;;14.88;7.78;;;4.90;99.90;;;;;;5072224;28;20036;-58
2024/01/29 10:01:21;;;;;;;19.98;8.70;;;4.90;99.90;;;;;;5071780;28;20036;-58
2024/01/29 10:03:47;;;;;;;12.85;7.60;;;5.30;99.90;;;;;;5071881;28;20098;-57
2024/01/29 10:06:13;;;;;;;13.95;7.72;;;5.20;99.90;;;;;;5071894;28;20032;-58
2024/01/29 10:08:40;;;;;;;13.05;7.50;;;5.10;99.90;;;;;;5071552;28;20037;-58
2024/01/29 10:11:06;;;;;;;13.93;7.50;;;5.50;99.90;;;;;;5072053;28;20035;-57
2024/01/29 10:13:32;;;;;;;15.90;8.40;;;5.20;99.90;;;;;;5072180;28;20068;-57
2024/01/29 10:15:58;;;;;;;14.18;7.82;;;5.40;99.90;;;;;;5071783;28;20529;-57
2024/01/29 10:18:24;;;;;;;14.18;7.68;;;5.40;99.90;;;;;;5071706;28;20392;-57
2024/01/29 10:21:04;;;;;;;13.50;7.40;;;5.40;99.90;;;;;;5071797;28;20090;-57
2024/01/29 10:23:30;;;;;;;14.93;8.15;;;5.80;99.90;;;;;;5071868;28;20032;-58
2024/01/29 10:25:57;;;;;;;14.30;7.43;;;5.50;99.90;;;;;;5070687;28;20041;-57
2024/01/29 10:28:23;;;;;;;12.70;7.38;;;5.90;99.90;;;;;;5071595;28;20098;-58
2024/01/29 10:30:50;;;;;;;14.30;7.78;;;5.70;99.90;;;;;;5071544;28;20083;-57
2024/01/29 10:33:16;;;;;;;16.50;8.63;;;5.70;99.90;;;;;;5071568;28;20480;-57
2024/01/29 10:35:41;;;;;;;13.02;8.35;;;6.10;99.90;;;;;;5068441;28;20081;-57
2024/01/29 10:38:07;;;;;;;16.70;9.52;;;6.10;99.90;;;;;;5071590;28;20045;-57
2024/01/29 10:40:34;;;;;;;15.52;8.52;;;6.00;99.90;;;;;;5071645;28;20051;-58
2024/01/29 10:43:01;;;;;;;15.70;8.90;;;6.00;99.90;;;;;;5071912;28;20041;-57
2024/01/29 10:45:27;;;;;;;16.80;8.63;;;6.30;99.90;;;;;;5071508;28;20040;-58
2024/01/29 10:48:05;;;;;;;14.95;8.00;;;6.00;99.90;;;;;;5071835;28;20044;-58
2024/01/29 10:50:31;;;;;;;22.70;8.65;;;6.20;99.90;;;;;;5071785;28;20109;-58
2024/01/29 10:52:59;;;;;;;17.55;8.82;;;6.30;99.90;;;;;;5071515;28;20425;-57
2024/01/29 10:55:26;;;;;;;18.70;8.73;;;6.20;99.90;;;;;;5071191;28;20059;-57
2024/01/29 10:57:52;;;;;;;19.45;9.55;;;6.20;99.90;;;;;;5071369;28;20102;-58
2024/01/29 11:00:19;;;;;;;16.80;9.15;;;6.20;99.90;;;;;;5071509;28;20048;-57
2024/01/29 11:02:46;;;;;;;18.88;9.95;;;6.50;99.90;;;;;;5071498;28;20040;-57
2024/01/29 11:05:13;;;;;;;19.77;10.18;;;6.30;99.90;;;;;;5071303;28;20429;-58
2024/01/29 11:07:43;;;;;;;15.80;9.57;;;6.60;99.90;;;;;;5071261;28;20563;-57
2024/01/29 11:10:23;;;;;;;21.92;9.82;;;6.70;99.90;;;;;;5071559;28;20143;-58
2024/01/29 11:12:52;;;;;;;16.95;8.98;;;6.70;99.90;;;;;;5071438;28;20048;-57
2024/01/29 11:15:18;;;;;;;18.42;9.48;;;6.80;99.90;;;;;;5071157;28;20097;-57
2024/01/29 11:17:44;;;;;;;18.00;9.43;;;6.40;99.90;;;;;;5071033;28;20362;-57
2024/01/29 11:20:15;;;;;;;18.02;9.20;;;6.70;99.90;;;;;;5072754;28;20044;-57
2024/01/29 11:22:49;;;;;;;16.58;9.25;;;6.40;99.90;;;;;;5074642;28;20451;-56
2024/01/29 11:25:15;;;;;;;19.23;10.15;;;6.50;99.90;;;;;;5074900;28;20045;-57
2024/01/29 11:27:48;;;;;;;15.25;9.50;;;6.70;99.90;;;;;;5074533;28;20047;-57
2024/01/29 11:30:22;;;;;;;17.98;9.45;;;6.80;99.90;;;;;;5074643;28;20051;-57
2024/01/29 11:32:49;;;;;;;16.63;9.98;;;6.80;99.90;;;;;;5074475;28;20106;-57
2024/01/29 11:35:18;;;;;;;17.60;9.40;;;6.50;99.90;;;;;;5074705;28;20044;-58
2024/01/29 11:37:44;;;;;;;16.73;9.05;;;6.60;99.90;;;;;;5073105;28;20113;-58
2024/01/29 11:40:43;;;;;;;17.65;10.70;;;6.60;99.90;;;;;;5074445;28;20036;-58
2024/01/29 11:43:19;;;;;;;20.67;10.68;;;6.90;99.90;;;;;;5051143;28;20044;-58
2024/01/29 11:45:48;;;;;;;22.90;10.00;;;6.80;99.90;;;;;;5074057;28;20072;-58
2024/01/29 11:48:15;;;;;;;22.13;10.55;;;6.80;99.90;;;;;;5074245;28;20051;-58
2024/01/29 11:50:54;;;;;;;22.52;10.70;;;7.10;99.90;;;;;;5074269;28;20040;-57
2024/01/29 11:53:27;;;;;;;21.45;12.93;;;7.00;99.90;;;;;;5074112;28;20037;-57
2024/01/29 11:55:54;;;;;;;21.90;13.10;;;7.20;99.90;;;;;;5073823;28;20125;-58
2024/01/29 11:58:21;;;;;;;24.95;13.85;;;7.30;99.90;;;;;;5073850;28;20501;-58
2024/01/29 12:00:49;;;;;;;26.63;14.25;;;6.90;99.90;;;;;;5074189;28;20045;-58
2024/01/29 12:03:23;;;;;;;26.95;14.10;;;7.40;99.90;;;;;;5074231;28;20040;-58
2024/01/29 12:05:51;;;;;;;27.17;13.45;;;7.00;99.90;;;;;;5072341;28;20079;-58
2024/01/29 12:08:18;;;;;;;26.17;13.70;;;7.50;99.90;;;;;;5068161;28;20045;-57
2024/01/29 12:10:45;;;;;;;28.65;13.93;;;7.60;99.90;;;;;;5053974;28;20136;-58
2024/01/29 12:13:20;;;;;;;28.40;14.60;;;7.10;99.90;;;;;;5052687;28;20472;-57
2024/01/29 12:15:49;;;;;;;26.02;13.45;;;6.80;99.90;;;;;;5053911;28;20116;-57
2024/01/29 12:18:23;;;;;;;27.50;13.50;;;7.00;99.90;;;;;;5053478;28;20041;-57
2024/01/29 12:20:49;;;;;;;24.63;13.73;;;7.60;99.90;;;;;;5053776;28;20080;-57
2024/01/29 12:23:19;;;;;;;27.98;13.68;;;7.50;99.90;;;;;;5053527;28;20048;-57
2024/01/29 12:25:48;;;;;;;26.88;14.05;;;7.30;99.90;;;;;;5053756;28;20056;-58
2024/01/29 12:28:15;;;;;;;32.85;12.77;;;6.90;99.90;;;;;;5053734;28;20040;-58
2024/01/29 12:30:42;;;;;;;31.25;15.70;;;7.70;99.90;;;;;;5053275;28;20120;-58
2024/01/29 12:33:16;;;;;;;28.67;13.55;;;6.80;99.90;;;;;;5053398;28;20114;-58
2024/01/29 12:35:42;;;;;;;28.52;14.07;;;6.90;99.90;;;;;;5053505;28;20036;-58
2024/01/29 12:38:09;;;;;;;26.75;14.35;;;6.90;99.90;;;;;;5053232;28;20044;-57
2024/01/29 12:40:36;;;;;;;25.90;12.50;;;6.80;99.90;;;;;;5053431;28;20052;-57
2024/01/29 12:43:03;;;;;;;28.95;14.50;;;7.60;99.90;;;;;;5052111;28;20101;-57
2024/01/29 12:45:29;;;;;;;29.95;14.48;;;7.70;99.90;;;;;;5051736;28;20053;-57